Time;durP1;ratioP1;P1;durP2;ratioP2;P2;SDS_P1;SDS_P2;PMS_P1;PMS_P2;Temp;Humidity;BMP_temperature;BMP_pressure;BME280_temperature;BME280_humidity;BME280_pressure;Samples;Min_cycle;Max_cycle;Signal;HPM_P1;HPM_P2
2021/09/08 00:02:22;;;;;;;13.90;9.02;;;16.90;99.90;;;;;;4998006;28;20046;-81
2021/09/08 00:04:47;;;;;;;12.02;8.60;;;16.90;99.90;;;;;;4987132;28;20082;-81
2021/09/08 00:07:13;;;;;;;13.60;8.55;;;16.90;99.90;;;;;;4978510;28;20053;-81
2021/09/08 00:09:38;;;;;;;12.43;8.82;;;16.80;99.90;;;;;;4976938;28;20026;-81
2021/09/08 00:12:04;;;;;;;14.43;9.38;;;16.80;99.90;;;;;;4977699;28;20027;-81
2021/09/08 00:14:31;;;;;;;13.57;8.95;;;16.80;99.90;;;;;;4978128;28;20026;-81
2021/09/08 00:16:56;;;;;;;13.88;9.13;;;16.80;99.90;;;;;;4977365;28;20070;-81
2021/09/08 00:19:22;;;;;;;15.63;8.75;;;16.70;99.90;;;;;;4977101;28;20026;-81
2021/09/08 00:21:47;;;;;;;15.30;9.00;;;16.70;99.90;;;;;;4977792;28;20102;-81
2021/09/08 00:24:13;;;;;;;15.13;10.00;;;16.70;99.90;;;;;;4999504;28;20018;-81
2021/09/08 00:26:38;;;;;;;12.90;8.35;;;16.60;99.90;;;;;;5010752;28;20086;-81
2021/09/08 00:29:04;;;;;;;12.43;8.60;;;16.60;99.90;;;;;;4995783;28;20031;-81
2021/09/08 00:31:29;;;;;;;14.52;9.20;;;16.70;99.90;;;;;;4993457;28;20042;-81
2021/09/08 00:33:55;;;;;;;15.23;9.13;;;16.60;99.90;;;;;;4977971;28;20042;-81
2021/09/08 00:36:21;;;;;;;14.38;8.77;;;16.60;99.90;;;;;;4977744;28;20031;-80
2021/09/08 00:38:46;;;;;;;15.02;9.40;;;16.60;99.90;;;;;;4977172;28;20038;-81
2021/09/08 00:41:12;;;;;;;13.82;9.32;;;16.60;99.90;;;;;;4976678;28;20077;-81
2021/09/08 00:43:37;;;;;;;15.68;9.10;;;16.60;99.90;;;;;;4977865;28;20503;-81
2021/09/08 00:46:03;;;;;;;13.35;9.13;;;16.60;99.90;;;;;;4978098;28;20034;-80
2021/09/08 00:48:29;;;;;;;14.73;9.70;;;16.60;99.90;;;;;;4995079;28;20029;-81
2021/09/08 00:50:56;;;;;;;17.20;10.00;;;16.50;99.90;;;;;;4978905;28;20031;-81
2021/09/08 00:53:22;;;;;;;14.27;9.02;;;16.50;99.90;;;;;;4978176;28;20038;-81
2021/09/08 00:55:49;;;;;;;15.02;9.50;;;16.50;99.90;;;;;;4978134;28;20077;-81
2021/09/08 00:58:15;;;;;;;16.20;10.40;;;16.50;99.90;;;;;;4977868;28;20027;-81
2021/09/08 01:00:42;;;;;;;15.98;9.80;;;16.50;99.90;;;;;;4976686;28;20038;-81
2021/09/08 01:03:08;;;;;;;16.95;11.50;;;16.50;99.90;;;;;;4976778;28;20042;-81
2021/09/08 01:05:34;;;;;;;15.38;9.63;;;16.50;99.90;;;;;;4977734;28;20034;-81
2021/09/08 01:08:00;;;;;;;17.55;10.73;;;16.50;99.90;;;;;;4977938;28;20027;-81
2021/09/08 01:10:27;;;;;;;15.80;9.65;;;16.40;99.90;;;;;;4977653;28;20069;-81
2021/09/08 01:12:52;;;;;;;15.18;10.40;;;16.40;99.90;;;;;;4977336;28;20034;-83
2021/09/08 01:15:18;;;;;;;13.25;9.25;;;16.40;99.90;;;;;;4978178;28;20423;-81
2021/09/08 01:17:44;;;;;;;15.10;9.70;;;16.30;99.90;;;;;;4975892;28;20023;-81
2021/09/08 01:20:12;;;;;;;12.40;9.15;;;16.30;99.90;;;;;;4979776;28;20025;-80
2021/09/08 01:22:49;;;;;;;14.48;9.38;;;16.30;99.90;;;;;;4981658;28;20034;-80
2021/09/08 01:25:27;;;;;;;16.95;9.80;;;16.30;99.90;;;;;;4995795;28;20027;-81
2021/09/08 01:27:55;;;;;;;15.15;10.18;;;16.30;99.90;;;;;;4990627;28;20026;-81
2021/09/08 01:30:25;;;;;;;14.73;9.75;;;16.20;99.90;;;;;;4981362;28;20034;-81
2021/09/08 01:32:51;;;;;;;15.13;9.45;;;16.20;99.90;;;;;;4981365;28;20022;-81
2021/09/08 01:35:19;;;;;;;13.90;10.25;;;16.20;99.90;;;;;;4981525;28;20030;-81
2021/09/08 01:37:49;;;;;;;15.50;10.20;;;16.20;99.90;;;;;;4980844;28;20047;-81
2021/09/08 01:40:16;;;;;;;15.40;10.27;;;16.20;99.90;;;;;;4979309;28;20030;-81
2021/09/08 01:42:43;;;;;;;13.57;9.77;;;16.10;99.90;;;;;;4996328;28;20031;-81
2021/09/08 01:45:13;;;;;;;15.15;10.70;;;16.20;99.90;;;;;;4981614;28;20027;-81
2021/09/08 01:47:40;;;;;;;15.07;10.38;;;16.10;99.90;;;;;;4991571;28;20030;-81
2021/09/08 01:50:06;;;;;;;16.20;10.10;;;16.10;99.90;;;;;;4999070;28;20436;-80
2021/09/08 01:52:32;;;;;;;15.18;10.20;;;16.10;99.90;;;;;;4996418;28;20026;-81
2021/09/08 01:54:58;;;;;;;15.10;9.82;;;16.00;99.90;;;;;;4981376;28;20030;-81
2021/09/08 01:57:24;;;;;;;17.65;11.35;;;16.00;99.90;;;;;;4981430;28;20018;-81
2021/09/08 01:59:49;;;;;;;14.68;10.35;;;16.00;99.90;;;;;;4980190;28;20115;-81
2021/09/08 02:02:15;;;;;;;18.95;11.27;;;15.90;99.90;;;;;;4982610;28;20030;-81
2021/09/08 02:04:41;;;;;;;15.02;9.45;;;15.90;99.90;;;;;;4983200;28;20027;-81
2021/09/08 02:07:06;;;;;;;19.48;11.55;;;15.90;99.90;;;;;;4998051;28;20496;-81
2021/09/08 02:09:32;;;;;;;16.30;10.93;;;15.90;99.90;;;;;;4981923;28;20098;-81
2021/09/08 02:11:59;;;;;;;16.45;11.32;;;15.80;99.90;;;;;;4981446;28;20034;-81
2021/09/08 02:14:24;;;;;;;16.60;11.25;;;15.80;99.90;;;;;;4995907;28;20023;-81
2021/09/08 02:16:50;;;;;;;17.15;11.10;;;15.80;99.90;;;;;;4995705;28;20093;-81
2021/09/08 02:19:15;;;;;;;19.83;11.93;;;15.80;99.90;;;;;;4980124;28;20038;-81
2021/09/08 02:21:41;;;;;;;15.48;10.52;;;15.70;99.90;;;;;;4981190;28;20038;-81
2021/09/08 02:24:07;;;;;;;15.82;10.73;;;15.80;99.90;;;;;;4987088;28;20422;-81
2021/09/08 02:26:32;;;;;;;17.98;11.25;;;15.70;99.90;;;;;;4992039;28;20046;-81
2021/09/08 02:28:58;;;;;;;18.98;11.95;;;15.70;99.90;;;;;;5031171;22;20224;-83
2021/09/08 02:31:24;;;;;;;17.23;11.13;;;15.60;99.90;;;;;;5022023;28;20030;-83
2021/09/08 02:33:50;;;;;;;17.88;11.48;;;15.60;99.90;;;;;;5016898;28;20036;-82
2021/09/08 02:36:16;;;;;;;16.60;11.23;;;15.60;99.90;;;;;;5025095;28;20026;-83
2021/09/08 02:38:42;;;;;;;19.17;11.60;;;15.50;99.90;;;;;;5005466;28;20045;-84
2021/09/08 02:41:08;;;;;;;18.95;11.25;;;15.40;99.90;;;;;;5006847;28;20058;-83
2021/09/08 02:43:35;;;;;;;16.25;11.50;;;15.50;99.90;;;;;;5006273;28;20050;-83
2021/09/08 02:46:03;;;;;;;17.20;11.23;;;15.40;99.90;;;;;;5011653;28;20018;-83
2021/09/08 02:48:30;;;;;;;16.35;11.10;;;15.40;99.90;;;;;;5039406;28;20470;-84
2021/09/08 02:50:55;;;;;;;17.05;11.18;;;15.40;99.90;;;;;;5003979;28;20038;-83
2021/09/08 02:53:21;;;;;;;16.40;11.27;;;15.40;99.90;;;;;;5020654;28;20118;-83
2021/09/08 02:55:47;;;;;;;19.20;11.55;;;15.40;99.90;;;;;;5021322;28;20034;-84
2021/09/08 02:58:12;;;;;;;15.23;11.43;;;15.40;99.90;;;;;;5005871;28;20057;-83
2021/09/08 03:00:38;;;;;;;16.80;10.90;;;15.30;99.90;;;;;;5005537;28;20026;-83
2021/09/08 03:03:04;;;;;;;14.65;10.35;;;15.40;99.90;;;;;;5011375;28;20026;-84
2021/09/08 03:05:29;;;;;;;17.67;12.00;;;15.40;99.90;;;;;;5019513;28;20085;-83
2021/09/08 03:07:55;;;;;;;17.85;11.85;;;15.40;99.90;;;;;;5005391;28;20038;-83
2021/09/08 03:10:21;;;;;;;16.95;11.32;;;15.40;99.90;;;;;;5020004;28;20554;-83
2021/09/08 03:12:46;;;;;;;16.90;10.90;;;15.30;99.90;;;;;;5004870;28;20037;-84
2021/09/08 03:15:12;;;;;;;15.73;10.70;;;15.40;99.90;;;;;;5005047;28;20062;-84
2021/09/08 03:17:38;;;;;;;18.25;11.38;;;15.40;99.90;;;;;;5005072;28;20034;-83
2021/09/08 03:20:04;;;;;;;19.05;11.18;;;15.40;99.90;;;;;;5005536;28;20582;-84
2021/09/08 03:22:31;;;;;;;17.80;11.40;;;15.30;99.90;;;;;;5002843;28;20034;-83
2021/09/08 03:24:58;;;;;;;17.67;11.55;;;15.30;99.90;;;;;;5010521;28;20018;-84
2021/09/08 03:27:23;;;;;;;19.23;12.48;;;15.30;99.90;;;;;;5000798;28;20042;-84
2021/09/08 03:29:49;;;;;;;17.17;11.65;;;15.30;99.90;;;;;;5016826;28;20065;-84
2021/09/08 03:32:15;;;;;;;16.25;10.77;;;15.20;99.90;;;;;;5022790;28;20045;-83
2021/09/08 03:34:41;;;;;;;16.63;11.75;;;15.30;99.90;;;;;;5023436;28;20025;-83
2021/09/08 03:37:06;;;;;;;16.92;11.88;;;15.20;99.90;;;;;;5026426;28;20075;-84
2021/09/08 03:39:32;;;;;;;17.35;11.65;;;15.20;99.90;;;;;;5023720;28;20030;-83
2021/09/08 03:41:57;;;;;;;19.90;11.38;;;15.30;99.90;;;;;;5037473;28;20077;-84
2021/09/08 03:44:23;;;;;;;15.77;10.65;;;15.20;99.90;;;;;;5042649;28;20486;-84
2021/09/08 03:46:49;;;;;;;19.00;11.50;;;15.20;99.90;;;;;;5041045;28;20026;-84
2021/09/08 03:49:14;;;;;;;17.20;11.40;;;15.20;99.90;;;;;;5041174;28;20434;-83
2021/09/08 03:51:40;;;;;;;16.40;10.50;;;15.20;99.90;;;;;;5022261;28;20022;-84
2021/09/08 03:54:05;;;;;;;17.23;10.93;;;15.20;99.90;;;;;;5022452;28;20041;-84
2021/09/08 03:56:31;;;;;;;38.58;12.27;;;15.20;99.90;;;;;;5022855;28;20140;-83
2021/09/08 03:58:56;;;;;;;20.30;11.95;;;15.20;99.90;;;;;;5021228;28;20018;-85
2021/09/08 04:01:22;;;;;;;15.13;10.65;;;15.10;99.90;;;;;;5004819;28;20034;-84
2021/09/08 04:03:49;;;;;;;17.65;10.60;;;15.10;99.90;;;;;;5021704;28;20026;-84
2021/09/08 04:06:15;;;;;;;14.82;9.75;;;15.20;99.90;;;;;;5004580;28;20022;-84
2021/09/08 04:08:42;;;;;;;17.08;10.88;;;15.00;99.90;;;;;;5022052;28;20030;-84
2021/09/08 04:11:07;;;;;;;15.45;9.65;;;15.10;99.90;;;;;;5022691;28;20057;-85
2021/09/08 04:13:35;;;;;;;16.60;10.45;;;15.10;99.90;;;;;;5020241;28;20041;-84
2021/09/08 04:16:01;;;;;;;15.93;10.50;;;15.00;99.90;;;;;;5031558;28;20040;-85
2021/09/08 04:18:26;;;;;;;14.52;9.65;;;15.00;99.90;;;;;;5042022;28;20029;-84
2021/09/08 04:20:52;;;;;;;14.25;10.05;;;14.90;99.90;;;;;;5041842;28;20032;-84
2021/09/08 04:23:18;;;;;;;16.13;10.25;;;14.90;99.90;;;;;;5033243;28;20033;-84
2021/09/08 04:25:43;;;;;;;15.05;10.30;;;14.90;99.90;;;;;;5040593;28;20107;-85
2021/09/08 04:28:09;;;;;;;14.07;9.15;;;15.00;99.90;;;;;;5039270;28;20044;-85
2021/09/08 04:30:35;;;;;;;14.60;10.32;;;15.00;99.90;;;;;;5040004;28;20093;-84
2021/09/08 04:33:00;;;;;;;16.23;10.70;;;14.90;99.90;;;;;;5035560;28;20504;-85
2021/09/08 04:35:26;;;;;;;15.65;10.52;;;15.10;99.90;;;;;;5032241;28;20117;-85
2021/09/08 04:37:51;;;;;;;16.25;10.20;;;14.90;99.90;;;;;;5028665;28;20037;-84
2021/09/08 04:40:17;;;;;;;14.23;9.40;;;14.90;99.90;;;;;;5020918;28;20037;-84
2021/09/08 04:42:43;;;;;;;16.02;9.43;;;14.90;99.90;;;;;;5040439;28;20029;-85
2021/09/08 04:45:09;;;;;;;15.15;9.73;;;14.90;99.90;;;;;;5040689;28;20025;-84
2021/09/08 04:47:35;;;;;;;12.35;8.38;;;14.90;99.90;;;;;;5039329;28;20034;-85
2021/09/08 04:50:01;;;;;;;14.50;9.55;;;14.90;99.90;;;;;;5010329;28;20045;-84
2021/09/08 04:52:30;;;;;;;14.48;8.80;;;14.90;99.90;;;;;;5030411;28;20041;-84
2021/09/08 04:54:56;;;;;;;14.60;9.05;;;14.90;99.90;;;;;;5042761;28;20053;-84
2021/09/08 04:57:21;;;;;;;12.43;8.32;;;15.00;99.90;;;;;;5045776;28;20025;-84
2021/09/08 04:59:47;;;;;;;16.27;8.98;;;15.00;99.90;;;;;;5025622;28;20367;-84
2021/09/08 05:02:13;;;;;;;13.27;8.43;;;15.00;99.90;;;;;;5024271;28;20057;-84
2021/09/08 05:04:38;;;;;;;12.38;8.48;;;15.00;99.90;;;;;;5025443;28;20102;-84
2021/09/08 05:07:04;;;;;;;14.23;8.65;;;15.00;99.90;;;;;;5026691;28;20057;-84
2021/09/08 05:09:30;;;;;;;15.13;8.95;;;15.00;99.90;;;;;;5025868;28;20030;-84
2021/09/08 05:11:55;;;;;;;14.82;8.70;;;15.00;99.90;;;;;;5025736;28;20079;-83
2021/09/08 05:14:21;;;;;;;16.98;9.15;;;15.00;99.90;;;;;;5025850;28;20025;-84
2021/09/08 05:16:47;;;;;;;12.68;9.15;;;15.00;99.90;;;;;;5026027;28;20040;-84
2021/09/08 05:19:12;;;;;;;13.98;8.80;;;15.00;99.90;;;;;;5042393;28;20028;-83
2021/09/08 05:21:38;;;;;;;15.40;9.05;;;15.00;99.90;;;;;;5044336;28;20375;-83
2021/09/08 05:24:05;;;;;;;13.52;9.15;;;15.10;99.90;;;;;;5042776;28;20037;-83
2021/09/08 05:26:30;;;;;;;15.13;8.45;;;15.10;99.90;;;;;;5045809;28;20021;-84
2021/09/08 05:28:56;;;;;;;13.95;8.98;;;15.10;99.90;;;;;;5045910;28;20029;-83
2021/09/08 05:31:21;;;;;;;15.68;8.90;;;15.10;99.90;;;;;;5045260;28;20679;-83
2021/09/08 05:33:47;;;;;;;15.65;8.93;;;15.20;99.90;;;;;;5010819;28;20037;-83
2021/09/08 05:36:15;;;;;;;12.75;8.50;;;15.20;99.90;;;;;;5042883;28;20088;-84
2021/09/08 05:38:41;;;;;;;13.45;8.88;;;15.30;99.90;;;;;;5026348;28;20093;-84
2021/09/08 05:41:09;;;;;;;12.60;8.55;;;15.30;99.90;;;;;;5027508;28;20020;-84
2021/09/08 05:43:34;;;;;;;15.70;8.65;;;15.30;99.90;;;;;;5029461;28;20040;-83
2021/09/08 05:46:00;;;;;;;13.73;8.68;;;15.40;99.90;;;;;;5046047;28;20493;-84
2021/09/08 05:48:26;;;;;;;14.55;8.93;;;15.40;99.90;;;;;;5028818;28;20052;-84
2021/09/08 05:50:52;;;;;;;13.32;8.45;;;15.50;99.90;;;;;;5045165;28;20032;-84
2021/09/08 05:53:17;;;;;;;14.27;8.73;;;15.50;99.90;;;;;;5044556;28;20017;-83
2021/09/08 05:55:43;;;;;;;13.95;8.48;;;15.60;99.90;;;;;;5027791;28;20025;-84
2021/09/08 05:58:08;;;;;;;13.50;8.38;;;15.70;99.90;;;;;;5043999;28;20057;-84
2021/09/08 06:00:34;;;;;;;11.90;7.75;;;15.70;99.90;;;;;;5025814;28;20036;-84
2021/09/08 06:03:00;;;;;;;12.55;7.30;;;15.80;99.90;;;;;;5027226;28;20082;-84
2021/09/08 06:05:25;;;;;;;11.15;7.20;;;15.90;99.90;;;;;;5042645;28;20075;-84
2021/09/08 06:07:51;;;;;;;13.10;8.48;;;15.90;99.90;;;;;;5039865;28;20033;-84
2021/09/08 06:10:18;;;;;;;12.80;7.80;;;16.00;99.90;;;;;;5041146;28;20103;-84
2021/09/08 06:12:45;;;;;;;13.32;8.13;;;16.10;99.90;;;;;;5041041;28;20049;-84
2021/09/08 06:15:11;;;;;;;12.43;7.80;;;16.20;99.90;;;;;;5040956;28;20033;-85
2021/09/08 06:17:37;;;;;;;11.68;7.95;;;16.30;99.90;;;;;;5036004;28;20053;-84
2021/09/08 06:20:03;;;;;;;13.48;7.40;;;16.40;99.90;;;;;;5038823;28;20021;-85
2021/09/08 06:22:29;;;;;;;12.85;7.22;;;16.50;99.90;;;;;;5019317;28;20477;-85
2021/09/08 06:24:55;;;;;;;11.13;7.80;;;16.60;99.90;;;;;;5025254;28;20085;-85
2021/09/08 06:27:20;;;;;;;12.32;7.25;;;16.60;99.90;;;;;;5024591;28;20120;-85
2021/09/08 06:29:46;;;;;;;12.20;7.53;;;16.70;99.90;;;;;;5037711;28;20116;-85
2021/09/08 06:32:11;;;;;;;12.95;6.60;;;16.90;99.90;;;;;;5035754;28;20029;-85
2021/09/08 06:34:37;;;;;;;10.27;6.47;;;16.90;99.90;;;;;;5036651;28;20029;-85
2021/09/08 06:37:04;;;;;;;11.43;6.97;;;17.10;99.90;;;;;;5023533;28;20056;-85
2021/09/08 06:39:29;;;;;;;11.30;6.57;;;17.10;99.90;;;;;;5013595;28;20033;-85
2021/09/08 06:41:55;;;;;;;10.93;6.68;;;17.20;99.90;;;;;;5035231;28;20081;-88
2021/09/08 06:44:23;;;;;;;12.48;6.78;;;17.30;99.90;;;;;;5037555;28;20025;-87
2021/09/08 06:46:50;;;;;;;9.32;5.95;;;17.30;99.90;;;;;;5029558;28;20026;-87
2021/09/08 06:49:16;;;;;;;14.48;6.80;;;17.40;99.90;;;;;;5037078;28;20018;-87
2021/09/08 06:51:41;;;;;;;9.43;6.18;;;17.50;99.90;;;;;;5040272;28;20048;-87
2021/09/08 06:54:07;;;;;;;11.68;5.70;;;17.60;99.90;;;;;;5023840;28;20478;-87
2021/09/08 06:56:33;;;;;;;10.10;6.38;;;17.70;99.90;;;;;;5040268;28;20022;-87
2021/09/08 06:59:01;;;;;;;8.52;5.72;;;17.60;99.90;;;;;;5033138;28;20033;-86
2021/09/08 07:01:27;;;;;;;11.80;6.25;;;17.70;99.90;;;;;;5028275;28;20480;-86
2021/09/08 07:03:52;;;;;;;10.88;5.97;;;17.80;99.90;;;;;;5028587;28;20109;-86
2021/09/08 07:06:22;;;;;;;9.38;6.00;;;17.90;99.90;;;;;;5013066;28;20036;-87
2021/09/08 07:08:48;;;;;;;12.43;6.15;;;18.00;99.90;;;;;;5028277;28;20032;-87
2021/09/08 07:11:14;;;;;;;9.07;5.68;;;18.10;99.90;;;;;;5010749;28;20060;-86
2021/09/08 07:13:40;;;;;;;9.20;5.38;;;18.10;99.90;;;;;;5030613;28;20541;-86
2021/09/08 07:16:05;;;;;;;9.13;5.78;;;18.20;99.90;;;;;;5031858;28;20105;-86
2021/09/08 07:18:31;;;;;;;8.70;5.30;;;18.30;99.90;;;;;;5011798;28;20117;-85
2021/09/08 07:20:57;;;;;;;10.90;5.85;;;18.30;99.90;;;;;;5014976;28;20034;-87
2021/09/08 07:23:22;;;;;;;9.98;5.72;;;18.50;99.90;;;;;;5012886;28;20048;-87
2021/09/08 07:25:48;;;;;;;8.75;5.57;;;18.60;99.90;;;;;;5030386;28;20025;-88
2021/09/08 07:28:13;;;;;;;10.43;5.97;;;18.70;99.90;;;;;;5024459;28;20025;-87
2021/09/08 07:30:40;;;;;;;9.88;5.78;;;18.80;99.90;;;;;;5022101;28;20211;-87
2021/09/08 07:33:06;;;;;;;11.00;5.55;;;19.00;99.90;;;;;;5026723;28;20402;-87
2021/09/08 07:35:31;;;;;;;11.80;6.18;;;19.10;99.90;;;;;;5007563;28;20029;-87
2021/09/08 07:37:59;;;;;;;9.93;6.13;;;19.30;99.90;;;;;;5018028;28;20037;-87
2021/09/08 07:40:26;;;;;;;8.80;5.88;;;19.30;99.90;;;;;;5019371;28;20029;-86
2021/09/08 07:42:52;;;;;;;9.45;5.57;;;19.40;99.90;;;;;;5026900;28;20022;-87
2021/09/08 07:45:18;;;;;;;9.30;5.75;;;19.40;99.90;;;;;;5013442;28;20029;-86
2021/09/08 07:47:44;;;;;;;8.52;5.93;;;19.40;99.90;;;;;;5030475;28;20026;-86
2021/09/08 07:50:10;;;;;;;10.38;5.90;;;19.50;99.90;;;;;;5029569;28;20029;-86
2021/09/08 07:52:36;;;;;;;11.35;5.80;;;19.60;99.90;;;;;;5009612;28;20086;-87
2021/09/08 07:55:04;;;;;;;10.48;5.97;;;19.50;99.90;;;;;;5027404;28;20034;-87
2021/09/08 07:57:30;;;;;;;10.10;5.57;;;19.60;99.90;;;;;;5024744;28;20475;-86
2021/09/08 07:59:55;;;;;;;13.50;5.57;;;19.70;99.90;;;;;;5008944;28;20025;-86
2021/09/08 08:02:21;;;;;;;11.88;5.97;;;19.70;99.90;;;;;;5009740;28;20040;-85
2021/09/08 08:04:47;;;;;;;9.63;5.88;;;19.90;99.90;;;;;;5027525;28;20025;-86
2021/09/08 08:07:12;;;;;;;9.55;5.68;;;20.10;99.90;;;;;;5030319;28;20068;-85
2021/09/08 08:09:44;;;;;;;9.18;5.40;;;20.00;99.90;;;;;;5029794;28;20021;-85
2021/09/08 08:12:10;;;;;;;8.98;5.43;;;20.10;99.90;;;;;;5012954;28;20028;-85
2021/09/08 08:14:36;;;;;;;9.90;5.90;;;20.00;99.90;;;;;;5028345;28;20030;-84
2021/09/08 08:17:03;;;;;;;9.88;5.57;;;20.20;99.90;;;;;;5006883;28;20029;-85
2021/09/08 08:19:31;;;;;;;11.13;5.63;;;20.20;99.90;;;;;;5025666;28;20568;-86
2021/09/08 08:21:56;;;;;;;9.35;5.47;;;20.40;99.90;;;;;;5029692;28;20091;-86
2021/09/08 08:24:22;;;;;;;9.93;5.32;;;20.50;99.90;;;;;;5010828;28;20030;-85
2021/09/08 08:26:48;;;;;;;9.98;5.60;;;20.50;99.90;;;;;;5029984;28;20096;-86
2021/09/08 08:29:14;;;;;;;10.27;5.78;;;20.70;99.60;;;;;;5029492;28;20026;-85
2021/09/08 08:31:39;;;;;;;9.90;5.50;;;20.70;99.20;;;;;;5012651;28;20025;-85
2021/09/08 08:34:05;;;;;;;10.05;5.43;;;20.90;99.30;;;;;;5042330;22;22058;-88
2021/09/08 08:36:31;;;;;;;9.18;5.70;;;20.90;99.10;;;;;;5024755;28;20025;-87
2021/09/08 08:38:56;;;;;;;8.77;5.60;;;21.00;98.90;;;;;;5042348;28;20087;-86
2021/09/08 08:41:23;;;;;;;11.48;5.43;;;21.20;99.00;;;;;;5028348;28;20387;-87
2021/09/08 08:43:49;;;;;;;9.32;5.50;;;21.30;99.00;;;;;;5040894;28;20096;-87
2021/09/08 08:46:16;;;;;;;11.85;5.63;;;21.40;98.30;;;;;;5009150;28;20520;-88
2021/09/08 08:48:42;;;;;;;9.27;5.55;;;21.40;98.10;;;;;;4999698;28;20030;-86
2021/09/08 08:51:08;;;;;;;10.98;6.40;;;21.50;98.20;;;;;;5009825;28;20034;-87
2021/09/08 08:53:34;;;;;;;9.35;5.80;;;21.60;98.10;;;;;;4994658;28;20184;-86
2021/09/08 08:56:00;;;;;;;8.95;5.50;;;21.60;98.30;;;;;;5002130;28;20529;-86
2021/09/08 08:58:28;;;;;;;11.40;6.00;;;21.70;98.40;;;;;;5007604;28;20486;-86
2021/09/08 09:01:13;;;;;;;10.48;5.63;;;21.80;97.70;;;;;;5016373;28;20030;-86
2021/09/08 09:03:39;;;;;;;9.15;5.47;;;21.90;97.80;;;;;;5006494;28;20026;-86
2021/09/08 09:06:04;;;;;;;9.65;5.60;;;21.90;97.70;;;;;;5017694;28;20129;-86
2021/09/08 09:08:35;;;;;;;9.10;5.57;;;22.10;97.90;;;;;;5006272;28;20029;-86
2021/09/08 09:11:02;;;;;;;9.48;5.75;;;22.20;98.10;;;;;;5003519;28;21336;-86
2021/09/08 09:13:34;;;;;;;9.00;5.53;;;22.20;98.00;;;;;;5003783;28;20030;-86
2021/09/08 09:16:09;;;;;;;10.00;5.55;;;22.30;97.10;;;;;;5001402;28;20034;-87
2021/09/08 09:18:41;;;;;;;9.48;5.50;;;22.20;97.30;;;;;;5009620;28;20072;-86
2021/09/08 09:21:11;;;;;;;9.38;5.50;;;22.10;96.60;;;;;;5023888;28;20018;-87
2021/09/08 09:23:50;;;;;;;11.02;5.40;;;22.20;97.00;;;;;;5006815;28;20506;-86
2021/09/08 09:26:28;;;;;;;9.77;5.90;;;22.30;97.60;;;;;;5008409;28;20022;-86
2021/09/08 09:29:04;;;;;;;9.40;5.45;;;22.40;96.30;;;;;;4999373;28;20053;-87
2021/09/08 09:31:52;;;;;;;9.40;5.70;;;22.40;96.90;;;;;;5007995;28;20029;-88
2021/09/08 09:34:18;;;;;;;11.15;5.30;;;22.60;97.60;;;;;;5007014;28;20034;-88
2021/09/08 09:36:44;;;;;;;9.05;6.07;;;22.80;97.00;;;;;;5008996;28;20474;-88
2021/09/08 09:39:09;;;;;;;10.52;5.68;;;22.80;96.20;;;;;;5006153;28;20022;-88
2021/09/08 09:41:36;;;;;;;12.20;5.45;;;22.90;95.50;;;;;;5008260;28;20030;-88
2021/09/08 09:44:10;;;;;;;8.52;5.35;;;22.80;95.80;;;;;;5005610;28;20059;-89
2021/09/08 09:46:39;;;;;;;9.98;5.95;;;22.90;96.30;;;;;;5007276;28;20067;-89
2021/09/08 09:49:05;;;;;;;12.30;5.15;;;22.90;95.90;;;;;;5011070;28;20033;-89
2021/09/08 09:51:32;;;;;;;8.80;5.65;;;23.20;95.90;;;;;;5008265;28;20402;-89
2021/09/08 09:54:00;;;;;;;7.85;4.95;;;23.50;96.20;;;;;;5010098;28;20026;-88
2021/09/08 09:56:26;;;;;;;7.75;4.78;;;23.40;95.40;;;;;;5009434;28;20490;-87
